Time;durP1;ratioP1;P1;durP2;ratioP2;P2;SDS_P1;SDS_P2;PMS_P1;PMS_P2;Temp;Humidity;BMP_temperature;BMP_pressure;BME280_temperature;BME280_humidity;BME280_pressure;Samples;Min_cycle;Max_cycle;Signal;HPM_P1;HPM_P2
2024/04/13 11:03:24;;;;;;;13.68;3.63;;;19.80;78.50;;;;;;5047844;28;20091;-86
2024/04/13 11:05:50;;;;;;;10.77;3.88;;;19.80;78.10;;;;;;5057128;28;20407;-89
2024/04/13 11:08:17;;;;;;;8.65;3.90;;;19.80;78.60;;;;;;5058871;28;20094;-90
2024/04/13 11:10:53;;;;;;;6.30;3.88;;;20.00;78.80;;;;;;5063284;28;20047;-87
2024/04/13 11:13:23;;;;;;;7.82;3.78;;;20.10;79.00;;;;;;5067125;28;20040;-88
2024/04/13 11:15:49;;;;;;;7.88;4.18;;;20.20;78.80;;;;;;5053799;28;20037;-84
2024/04/13 11:18:14;;;;;;;9.50;3.78;;;20.20;78.40;;;;;;5040480;28;20098;-85
2024/04/13 11:20:42;;;;;;;6.50;3.72;;;20.30;78.40;;;;;;5051862;28;20753;-80
2024/04/13 11:23:09;;;;;;;7.22;3.60;;;20.30;78.30;;;;;;5038845;28;20041;-82
2024/04/13 11:25:35;;;;;;;9.43;4.00;;;20.40;78.40;;;;;;5072559;28;20040;-74
2024/04/13 11:28:03;;;;;;;8.55;4.05;;;20.50;78.30;;;;;;5052147;28;20060;-75
2024/04/13 11:30:30;;;;;;;8.90;4.20;;;20.50;78.10;;;;;;5047129;28;20055;-73
2024/04/13 11:32:56;;;;;;;6.68;3.70;;;20.40;78.20;;;;;;5053168;28;20059;-73
2024/04/13 11:35:21;;;;;;;7.75;4.18;;;20.20;78.10;;;;;;5057491;28;20041;-74
2024/04/13 11:38:00;;;;;;;10.00;4.75;;;20.10;78.10;;;;;;5055338;28;20045;-73
2024/04/13 11:40:30;;;;;;;8.60;4.07;;;20.10;78.20;;;;;;5037734;28;20491;-75
2024/04/13 11:42:56;;;;;;;8.48;4.60;;;20.10;78.60;;;;;;5057870;28;20099;-75
2024/04/13 11:45:23;;;;;;;11.70;4.60;;;20.20;78.60;;;;;;5061705;28;20045;-73
2024/04/13 11:47:50;;;;;;;6.82;4.65;;;20.30;78.40;;;;;;5059670;28;20074;-73
2024/04/13 11:50:16;;;;;;;8.52;4.38;;;20.30;78.30;;;;;;5061386;28;20498;-74
2024/04/13 11:52:42;;;;;;;8.50;4.28;;;20.30;78.40;;;;;;5053769;28;20083;-73
2024/04/13 11:55:08;;;;;;;9.73;5.18;;;20.40;78.70;;;;;;5054496;28;20045;-73
2024/04/13 11:57:44;;;;;;;8.98;5.28;;;20.60;79.00;;;;;;5057845;28;20057;-73
2024/04/13 12:00:10;;;;;;;10.77;5.55;;;20.70;78.80;;;;;;5061586;28;20049;-72
2024/04/13 12:02:36;;;;;;;15.48;5.80;;;20.80;78.80;;;;;;5057930;28;20048;-71
2024/04/13 12:05:01;;;;;;;10.27;5.50;;;20.80;78.60;;;;;;5055608;28;20036;-72
2024/04/13 12:07:27;;;;;;;12.05;5.40;;;20.90;78.50;;;;;;5060466;28;20549;-71
2024/04/13 12:09:53;;;;;;;8.13;4.68;;;21.00;78.50;;;;;;5051256;28;20420;-71
2024/04/13 12:12:18;;;;;;;10.80;5.93;;;20.90;78.40;;;;;;5035614;28;20470;-76
2024/04/13 12:14:46;;;;;;;9.75;5.97;;;21.00;78.60;;;;;;5044832;28;20049;-74
2024/04/13 12:17:13;;;;;;;10.07;6.88;;;21.10;78.50;;;;;;5034323;28;20048;-75
2024/04/13 12:19:38;;;;;;;12.50;7.38;;;21.20;78.50;;;;;;5058970;28;20045;-74
2024/04/13 12:22:04;;;;;;;13.52;7.60;;;21.20;78.40;;;;;;5039709;28;20394;-76
2024/04/13 12:24:30;;;;;;;11.98;7.45;;;21.20;78.30;;;;;;5032070;28;20485;-75
2024/04/13 12:26:56;;;;;;;12.93;8.10;;;21.30;78.70;;;;;;5013850;28;20566;-75
2024/04/13 12:29:22;;;;;;;11.95;7.13;;;21.40;78.30;;;;;;5042739;28;20034;-76
2024/04/13 12:31:47;;;;;;;13.30;7.40;;;21.40;78.10;;;;;;5023656;28;20110;-75
2024/04/13 12:34:13;;;;;;;13.77;7.35;;;21.40;77.80;;;;;;5034789;28;20550;-75
2024/04/13 12:36:38;;;;;;;9.63;6.88;;;21.50;78.10;;;;;;5016311;28;20122;-75
2024/04/13 12:39:04;;;;;;;10.35;6.72;;;21.80;78.30;;;;;;5031820;28;20069;-76
2024/04/13 12:41:30;;;;;;;10.10;6.72;;;22.00;78.00;;;;;;5012440;28;20052;-76
2024/04/13 12:43:55;;;;;;;8.57;6.40;;;22.30;77.90;;;;;;5030193;28;20053;-76
2024/04/13 12:46:22;;;;;;;11.10;6.10;;;22.40;76.70;;;;;;5031582;28;20048;-77
2024/04/13 12:48:47;;;;;;;9.68;6.60;;;22.40;76.20;;;;;;5046795;28;20048;-77
2024/04/13 12:51:15;;;;;;;10.48;6.43;;;22.40;75.80;;;;;;5031148;28;20049;-76
2024/04/13 12:53:44;;;;;;;12.30;7.35;;;22.30;75.60;;;;;;5032745;28;20124;-76
2024/04/13 12:56:10;;;;;;;10.05;6.53;;;22.30;76.30;;;;;;5031633;28;20048;-76
2024/04/13 12:58:36;;;;;;;9.10;6.53;;;22.40;76.80;;;;;;5042873;28;20259;-76
2024/04/13 13:01:03;;;;;;;8.98;5.97;;;22.50;76.70;;;;;;5005158;28;20121;-76
2024/04/13 13:03:28;;;;;;;10.90;6.32;;;22.60;76.20;;;;;;5031437;28;20056;-76
2024/04/13 13:05:55;;;;;;;11.40;6.88;;;22.60;76.20;;;;;;5014078;28;20567;-76
2024/04/13 13:08:21;;;;;;;9.82;6.22;;;22.60;76.00;;;;;;5046536;28;20455;-76
2024/04/13 13:10:46;;;;;;;11.57;6.63;;;22.60;75.80;;;;;;5039266;28;20041;-77
2024/04/13 13:13:12;;;;;;;10.00;6.30;;;22.50;75.80;;;;;;5040629;28;20056;-76
2024/04/13 13:15:38;;;;;;;10.10;5.78;;;22.60;76.10;;;;;;5022496;28;20044;-76
2024/04/13 13:18:05;;;;;;;14.88;6.57;;;22.70;75.40;;;;;;5017338;28;20064;-76
2024/04/13 13:20:31;;;;;;;14.73;6.28;;;22.80;75.40;;;;;;5036454;28;20301;-75
2024/04/13 13:22:57;;;;;;;9.93;6.05;;;23.00;75.60;;;;;;5046564;28;20044;-75
2024/04/13 13:25:23;;;;;;;11.60;6.30;;;23.00;75.30;;;;;;5021982;28;20045;-74
2024/04/13 13:27:49;;;;;;;11.73;6.35;;;23.00;75.20;;;;;;5039560;28;20480;-74
2024/04/13 13:30:15;;;;;;;11.55;6.47;;;22.90;75.20;;;;;;5048787;28;20072;-75
2024/04/13 13:32:41;;;;;;;11.60;6.70;;;22.80;75.20;;;;;;5046731;28;20052;-75
2024/04/13 13:35:07;;;;;;;14.38;6.13;;;22.80;75.30;;;;;;5044983;28;20036;-74
2024/04/13 13:37:34;;;;;;;10.98;6.45;;;22.70;75.00;;;;;;5044300;28;20048;-74
2024/04/13 13:40:00;;;;;;;13.52;6.57;;;22.60;75.10;;;;;;5046322;28;20102;-74
2024/04/13 13:42:25;;;;;;;10.32;5.43;;;22.50;75.30;;;;;;5037288;28;20049;-74
2024/04/13 13:44:51;;;;;;;9.50;5.72;;;22.60;75.50;;;;;;5036735;28;20048;-74
2024/04/13 13:47:16;;;;;;;12.77;6.47;;;22.90;75.40;;;;;;5047481;28;20053;-74
2024/04/13 13:49:42;;;;;;;9.98;6.43;;;23.00;75.20;;;;;;5021036;28;20050;-75
2024/04/13 13:52:08;;;;;;;10.25;6.22;;;22.90;75.00;;;;;;5038141;28;20041;-74
2024/04/13 13:54:33;;;;;;;11.85;6.35;;;22.90;75.30;;;;;;5021918;28;20135;-74
2024/04/13 13:56:59;;;;;;;10.25;5.85;;;23.00;75.10;;;;;;5043601;28;20124;-74
2024/04/13 13:59:24;;;;;;;11.35;5.90;;;23.00;74.70;;;;;;5042075;28;20060;-74
2024/04/13 14:01:51;;;;;;;11.13;6.20;;;23.00;75.30;;;;;;5044090;28;20045;-74
2024/04/13 14:04:16;;;;;;;11.93;5.85;;;23.00;75.00;;;;;;4999112;28;20053;-74
2024/04/13 14:06:42;;;;;;;9.38;5.63;;;23.10;75.20;;;;;;5042748;28;20052;-74
2024/04/13 14:09:08;;;;;;;12.25;5.75;;;23.00;75.00;;;;;;5029953;28;20042;-75
2024/04/13 14:11:33;;;;;;;9.65;6.05;;;23.00;75.10;;;;;;5038107;28;20060;-74
2024/04/13 14:13:59;;;;;;;8.85;5.00;;;23.40;75.50;;;;;;5036703;28;20075;-74
2024/04/13 14:16:25;;;;;;;7.68;4.20;;;23.70;75.20;;;;;;5043419;28;20043;-73
2024/04/13 14:18:51;;;;;;;11.20;4.20;;;24.00;74.60;;;;;;5025209;28;20116;-75
2024/04/13 14:21:16;;;;;;;9.93;4.00;;;24.20;74.00;;;;;;5029296;28;20049;-75
2024/04/13 14:23:42;;;;;;;6.28;3.15;;;24.50;73.60;;;;;;5032588;28;20046;-74
2024/04/13 14:26:08;;;;;;;6.28;3.40;;;24.70;73.30;;;;;;5013367;28;20037;-75
2024/04/13 14:28:34;;;;;;;6.47;3.42;;;24.90;72.70;;;;;;5027045;28;20045;-74
2024/04/13 14:31:00;;;;;;;6.72;3.38;;;25.10;72.90;;;;;;5027063;28;20115;-74
2024/04/13 14:33:26;;;;;;;6.75;3.45;;;25.50;72.90;;;;;;5006135;28;20042;-73
2024/04/13 14:35:52;;;;;;;10.32;3.40;;;25.60;71.90;;;;;;5026546;28;20051;-74
2024/04/13 14:38:19;;;;;;;7.65;3.22;;;25.30;71.50;;;;;;5026690;28;20049;-73
2024/04/13 14:40:45;;;;;;;11.55;3.65;;;25.10;71.30;;;;;;5027984;28;20410;-74
2024/04/13 14:43:10;;;;;;;6.75;3.58;;;24.90;71.70;;;;;;5032715;28;20041;-74
2024/04/13 14:45:36;;;;;;;8.35;3.30;;;24.60;71.70;;;;;;5026857;28;20077;-74
2024/04/13 14:48:02;;;;;;;8.35;3.08;;;24.20;71.50;;;;;;5010616;28;20083;-73
2024/04/13 14:50:28;;;;;;;5.50;3.30;;;23.90;71.90;;;;;;5033808;28;20041;-74
2024/04/13 14:52:53;;;;;;;7.43;3.58;;;23.70;72.20;;;;;;5033773;28;20475;-74
2024/04/13 14:55:19;;;;;;;7.82;3.33;;;23.80;72.10;;;;;;5026674;28;20507;-74
2024/04/13 14:57:45;;;;;;;6.40;3.65;;;23.70;72.20;;;;;;5036257;28;20449;-74
2024/04/13 15:00:11;;;;;;;6.97;3.08;;;23.60;72.00;;;;;;5028828;28;20130;-73
2024/04/13 15:02:37;;;;;;;8.65;3.67;;;23.40;72.50;;;;;;5013414;28;20045;-74
2024/04/13 15:05:04;;;;;;;10.98;3.53;;;23.40;72.20;;;;;;5029515;28;20129;-74
2024/04/13 15:07:29;;;;;;;8.07;3.72;;;23.20;72.50;;;;;;5028636;28;20048;-74
2024/04/13 15:09:55;;;;;;;9.25;3.70;;;23.10;72.70;;;;;;5012242;28;20173;-74
2024/04/13 15:12:21;;;;;;;11.05;3.45;;;23.00;72.70;;;;;;5026869;28;20463;-74
2024/04/13 15:14:46;;;;;;;9.52;3.97;;;22.90;72.90;;;;;;5030704;28;20075;-74
2024/04/13 15:17:12;;;;;;;8.57;4.03;;;22.90;73.10;;;;;;5040521;28;20045;-74
2024/04/13 15:19:38;;;;;;;10.40;3.55;;;22.80;73.10;;;;;;5029197;28;20160;-74
2024/04/13 15:22:09;;;;;;;11.48;3.42;;;22.80;72.90;;;;;;4995521;28;20048;-74
2024/04/13 15:24:35;;;;;;;9.30;3.60;;;22.80;72.90;;;;;;5013146;28;20049;-74
2024/04/13 15:27:01;;;;;;;10.93;3.42;;;22.80;73.10;;;;;;5013197;28;20041;-74
2024/04/13 15:29:26;;;;;;;11.35;3.50;;;22.70;73.20;;;;;;5029383;28;20507;-74
2024/04/13 15:31:52;;;;;;;7.30;3.10;;;22.70;73.10;;;;;;5036029;28;20044;-74
2024/04/13 15:34:18;;;;;;;5.45;3.05;;;22.70;73.20;;;;;;5029106;28;20083;-73
2024/04/13 15:36:43;;;;;;;8.25;3.78;;;22.70;73.10;;;;;;5028463;28;20147;-74
2024/04/13 15:39:09;;;;;;;7.80;3.22;;;22.60;72.80;;;;;;5016236;28;20132;-73
2024/04/13 15:41:35;;;;;;;9.27;3.30;;;22.50;73.60;;;;;;5028995;28;20426;-73
2024/04/13 15:44:00;;;;;;;6.05;3.35;;;22.50;73.00;;;;;;5028379;28;20045;-73
2024/04/13 15:46:26;;;;;;;5.75;2.85;;;22.40;73.00;;;;;;5016248;28;20055;-74
2024/04/13 15:48:52;;;;;;;8.10;3.33;;;22.40;73.40;;;;;;5016820;28;20048;-73
2024/04/13 15:51:17;;;;;;;6.53;3.53;;;22.40;73.30;;;;;;5016218;28;20057;-74
2024/04/13 15:53:43;;;;;;;6.88;3.08;;;22.40;73.50;;;;;;5032666;28;20041;-73
2024/04/13 15:56:09;;;;;;;6.20;3.72;;;22.40;73.30;;;;;;5016142;28;20144;-74
2024/04/13 15:58:35;;;;;;;6.25;2.83;;;22.30;73.20;;;;;;5028229;28;20088;-74
2024/04/13 16:01:01;;;;;;;5.80;2.83;;;22.20;73.20;;;;;;5033179;28;20533;-73
2024/04/13 16:03:27;;;;;;;8.85;3.08;;;22.20;73.30;;;;;;4999288;28;20098;-73
2024/04/13 16:05:54;;;;;;;6.40;3.40;;;22.30;73.40;;;;;;5036867;28;20076;-73
2024/04/13 16:08:21;;;;;;;5.93;3.08;;;22.30;73.10;;;;;;5035609;28;20037;-74
2024/04/13 16:10:47;;;;;;;5.70;3.10;;;22.30;73.10;;;;;;5032797;28;20044;-73
2024/04/13 16:13:12;;;;;;;7.00;3.67;;;22.20;73.20;;;;;;5027780;28;20052;-74
2024/04/13 16:15:38;;;;;;;6.97;2.90;;;22.20;73.30;;;;;;5032139;28;20045;-74
2024/04/13 16:18:04;;;;;;;5.78;3.28;;;22.10;73.30;;;;;;5015138;28;20410;-73
2024/04/13 16:20:29;;;;;;;5.43;2.80;;;22.10;73.60;;;;;;5031332;28;20546;-74
2024/04/13 16:22:55;;;;;;;7.93;2.92;;;22.10;73.40;;;;;;5016721;28;20099;-74
2024/04/13 16:25:21;;;;;;;7.90;2.50;;;22.00;73.20;;;;;;5032729;28;20053;-73
2024/04/13 16:27:46;;;;;;;5.18;3.00;;;21.90;73.00;;;;;;5031470;28;20076;-74
2024/04/13 16:30:12;;;;;;;6.85;2.95;;;21.90;73.20;;;;;;5012036;28;20053;-73
2024/04/13 16:32:38;;;;;;;5.05;3.28;;;21.90;73.40;;;;;;5024574;28;20484;-74
2024/04/13 16:35:04;;;;;;;7.22;3.30;;;21.80;73.60;;;;;;5030564;28;20124;-74
2024/04/13 16:37:30;;;;;;;7.47;2.78;;;21.80;73.70;;;;;;5028563;28;20057;-73
2024/04/13 16:39:56;;;;;;;8.98;3.38;;;21.80;74.00;;;;;;5052143;28;20148;-73
2024/04/13 16:42:22;;;;;;;5.05;3.35;;;21.70;73.90;;;;;;5016966;28;20041;-73
2024/04/13 16:44:48;;;;;;;9.32;3.75;;;21.70;74.00;;;;;;5017653;28;20060;-74
2024/04/13 16:47:14;;;;;;;6.65;3.20;;;21.60;74.30;;;;;;5034361;28;20045;-73
2024/04/13 16:49:39;;;;;;;5.05;3.00;;;21.60;74.10;;;;;;5034409;28;20424;-73
2024/04/13 16:52:05;;;;;;;5.45;3.10;;;21.50;74.30;;;;;;5034448;28;20037;-74
2024/04/13 16:54:31;;;;;;;9.15;3.40;;;21.50;74.50;;;;;;5034437;28;20048;-74
2024/04/13 16:56:56;;;;;;;7.05;3.05;;;21.40;74.60;;;;;;5033731;28;20037;-74
2024/04/13 16:59:22;;;;;;;6.82;3.40;;;21.40;74.70;;;;;;5017110;28;20072;-74
2024/04/13 17:01:48;;;;;;;8.00;3.80;;;21.30;74.80;;;;;;5034490;28;20443;-75
2024/04/13 17:04:14;;;;;;;5.68;3.10;;;21.30;75.00;;;;;;5034255;28;20049;-74
2024/04/13 17:06:41;;;;;;;7.65;3.30;;;21.20;75.10;;;;;;5042797;28;20040;-74
2024/04/13 17:09:08;;;;;;;6.57;3.55;;;21.20;75.00;;;;;;5038895;28;20045;-73
2024/04/13 17:11:33;;;;;;;7.35;3.40;;;21.20;74.80;;;;;;5033946;28;20515;-74
2024/04/13 17:13:59;;;;;;;7.82;3.22;;;21.00;75.10;;;;;;5033484;28;20194;-73
2024/04/13 17:16:24;;;;;;;10.27;3.70;;;21.00;75.30;;;;;;5017808;28;20045;-74
2024/04/13 17:18:50;;;;;;;7.70;3.72;;;21.00;74.80;;;;;;5034005;28;20041;-74
2024/04/13 17:21:16;;;;;;;6.97;3.15;;;20.90;75.00;;;;;;5034080;28;20047;-74
2024/04/13 17:23:42;;;;;;;8.02;3.70;;;20.90;75.30;;;;;;5032927;28;20045;-74
2024/04/13 17:26:08;;;;;;;9.05;3.83;;;20.80;75.70;;;;;;5034082;28;20365;-74
2024/04/13 17:28:34;;;;;;;11.48;4.10;;;20.70;75.90;;;;;;5033303;28;20133;-74
2024/04/13 17:30:59;;;;;;;7.18;4.20;;;20.60;75.90;;;;;;5033799;28;20068;-77
2024/04/13 17:33:25;;;;;;;10.95;3.97;;;20.60;76.00;;;;;;5033515;28;20048;-77
2024/04/13 17:35:51;;;;;;;7.53;4.18;;;20.50;76.20;;;;;;5001173;28;20049;-78
2024/04/13 17:38:16;;;;;;;7.93;3.90;;;20.40;76.20;;;;;;5018675;28;20048;-78
2024/04/13 17:40:42;;;;;;;10.13;4.70;;;20.40;76.10;;;;;;5033909;28;20049;-80
2024/04/13 17:43:08;;;;;;;8.52;4.07;;;20.30;76.00;;;;;;5015825;28;20033;-80
2024/04/13 17:45:34;;;;;;;6.78;4.30;;;20.20;76.10;;;;;;5017004;28;20045;-82
2024/04/13 17:48:35;;;;;;;;;;;;;;;;;;;;;
